createdAt,value
2022-12-03T00:02:21.531Z,35.90
2022-12-03T00:04:48.349Z,35.55
2022-12-03T00:07:15.133Z,37.50
2022-12-03T00:09:42.655Z,33.72
2022-12-03T00:12:09.445Z,33.50
2022-12-03T00:14:39.963Z,33.65
2022-12-03T00:17:09.760Z,32.00
2022-12-03T00:19:36.526Z,31.33
2022-12-03T00:22:03.287Z,33.15
2022-12-03T00:24:30.073Z,32.67
2022-12-03T00:26:56.873Z,30.30
2022-12-03T00:29:23.716Z,31.02
2022-12-03T00:31:50.479Z,33.38
2022-12-03T00:34:17.298Z,33.67
2022-12-03T00:36:44.062Z,30.40
2022-12-03T00:39:10.847Z,32.42
2022-12-03T00:41:37.599Z,31.95
2022-12-03T00:44:04.508Z,31.45
2022-12-03T00:46:31.344Z,31.55
2022-12-03T00:48:58.188Z,31.00
2022-12-03T00:51:24.944Z,29.55
2022-12-03T00:53:51.735Z,29.08
2022-12-03T00:56:18.491Z,29.13
2022-12-03T00:58:45.317Z,29.63
2022-12-03T01:01:12.075Z,28.10
2022-12-03T01:03:38.899Z,26.45
2022-12-03T01:06:05.805Z,27.75
2022-12-03T01:08:32.564Z,26.65
2022-12-03T01:10:59.386Z,25.95
2022-12-03T01:13:26.153Z,27.17
2022-12-03T01:15:53.632Z,27.13
2022-12-03T01:18:20.644Z,26.45
2022-12-03T01:20:47.456Z,27.30
2022-12-03T01:23:14.209Z,27.08
2022-12-03T01:25:41.004Z,27.48
2022-12-03T01:28:07.764Z,27.25
2022-12-03T01:30:54.599Z,27.25
2022-12-03T01:33:21.445Z,25.83
2022-12-03T01:35:48.198Z,26.25
2022-12-03T01:38:14.939Z,27.52
2022-12-03T01:40:41.796Z,28.70
2022-12-03T01:43:08.546Z,30.50
2022-12-03T01:45:35.424Z,29.17
2022-12-03T01:48:02.233Z,28.75
2022-12-03T01:50:33.407Z,30.73
2022-12-03T01:53:02.501Z,28.77
2022-12-03T01:55:29.756Z,30.13
2022-12-03T01:57:59.871Z,30.25
2022-12-03T02:00:28.233Z,30.92
2022-12-03T02:02:59.711Z,33.28
2022-12-03T02:05:29.440Z,31.52
2022-12-03T02:07:56.647Z,29.80
2022-12-03T02:10:32.194Z,30.17
2022-12-03T02:13:07.054Z,28.92
2022-12-03T02:15:34.968Z,29.75
2022-12-03T02:18:02.384Z,27.95
2022-12-03T02:20:33.452Z,28.45
2022-12-03T02:23:37.352Z,26.42
2022-12-03T02:26:04.189Z,26.45
2022-12-03T02:28:31.344Z,28.55
2022-12-03T02:30:58.204Z,28.90
2022-12-03T02:33:25.079Z,28.85
2022-12-03T02:35:51.858Z,27.55
2022-12-03T02:38:25.377Z,27.48
2022-12-03T02:40:56.685Z,28.60
2022-12-03T02:43:24.249Z,29.00
2022-12-03T02:45:55.259Z,28.85
2022-12-03T02:48:39.986Z,29.40
2022-12-03T02:51:10.347Z,29.25
2022-12-03T02:53:44.308Z,29.77
2022-12-03T02:58:43.062Z,26.20
2022-12-03T03:01:10.340Z,29.05
2022-12-03T03:03:38.222Z,28.35
2022-12-03T03:06:07.251Z,27.45
2022-12-03T03:08:35.295Z,26.25
2022-12-03T03:11:02.593Z,27.38
2022-12-03T03:13:31.333Z,25.90
2022-12-03T03:15:58.794Z,27.13
2022-12-03T03:18:25.758Z,27.10
2022-12-03T03:20:53.629Z,24.98
2022-12-03T03:23:23.543Z,26.85
2022-12-03T03:26:03.166Z,25.85
2022-12-03T03:28:31.285Z,26.52
2022-12-03T03:31:00.622Z,26.90
2022-12-03T03:33:27.691Z,25.40
2022-12-03T03:35:54.855Z,26.15
2022-12-03T03:38:23.410Z,28.00
2022-12-03T03:40:52.085Z,26.15
2022-12-03T03:43:20.849Z,24.35
2022-12-03T03:45:48.198Z,26.50
2022-12-03T03:48:15.539Z,26.50
2022-12-03T03:50:43.768Z,25.08
2022-12-03T03:53:12.174Z,25.13
2022-12-03T03:55:40.618Z,25.83
2022-12-03T03:58:07.699Z,24.48
2022-12-03T04:00:36.363Z,24.73
2022-12-03T04:03:04.907Z,24.70
2022-12-03T04:05:31.897Z,26.15
2022-12-03T04:07:59.222Z,26.38
2022-12-03T04:10:44.451Z,25.42
2022-12-03T04:13:11.213Z,24.50
2022-12-03T04:15:37.967Z,25.85
2022-12-03T04:18:31.166Z,25.10
2022-12-03T04:21:17.895Z,26.88
2022-12-03T04:23:44.731Z,25.85
2022-12-03T04:26:29.921Z,25.60
2022-12-03T04:28:56.722Z,26.35
2022-12-03T04:31:41.859Z,27.23
2022-12-03T04:34:28.587Z,28.70
2022-12-03T04:36:55.683Z,27.27
2022-12-03T04:39:22.659Z,27.30
2022-12-03T04:41:49.433Z,27.95
2022-12-03T04:44:36.207Z,25.98
2022-12-03T04:47:13.448Z,28.20
2022-12-03T04:49:44.646Z,29.05
2022-12-03T04:52:13.486Z,28.75
2022-12-03T04:54:41.169Z,30.70
2022-12-03T04:57:09.389Z,32.20
2022-12-03T04:59:37.080Z,32.08
2022-12-03T05:02:05.762Z,31.38
2022-12-03T05:04:32.798Z,31.75
2022-12-03T05:06:59.556Z,32.75
2022-12-03T05:09:26.362Z,32.90
2022-12-03T05:11:53.144Z,32.83
2022-12-03T05:14:19.935Z,31.70
2022-12-03T05:16:46.800Z,34.35
2022-12-03T05:19:13.625Z,32.13
2022-12-03T05:21:40.415Z,32.70
2022-12-03T05:24:07.336Z,33.05
2022-12-03T05:26:34.218Z,31.38
2022-12-03T05:29:00.996Z,30.67
2022-12-03T05:31:27.984Z,29.50
2022-12-03T05:33:55.073Z,32.58
2022-12-03T05:36:21.925Z,32.10
2022-12-03T05:38:48.785Z,32.05
2022-12-03T05:41:34.109Z,30.20
2022-12-03T05:44:00.978Z,30.77
2022-12-03T05:46:27.887Z,32.83
2022-12-03T05:48:54.729Z,32.17
2022-12-03T05:51:21.554Z,33.45
2022-12-03T05:53:48.362Z,33.05
2022-12-03T05:56:15.144Z,31.83
2022-12-03T05:58:41.936Z,34.05
2022-12-03T06:01:08.709Z,33.33
2022-12-03T06:03:35.580Z,32.88
2022-12-03T06:06:02.533Z,32.20
2022-12-03T06:08:29.330Z,32.38
2022-12-03T06:10:56.112Z,34.17
2022-12-03T06:13:22.874Z,33.47
2022-12-03T06:15:49.780Z,32.22
2022-12-03T06:18:16.625Z,33.40
2022-12-03T06:20:43.399Z,34.20
2022-12-03T06:23:10.252Z,34.55
2022-12-03T06:25:37.083Z,32.95
2022-12-03T06:28:04.019Z,33.30
2022-12-03T06:30:30.812Z,32.92
2022-12-03T06:32:57.655Z,34.15
2022-12-03T06:35:24.475Z,33.50
2022-12-03T06:37:51.241Z,34.40
2022-12-03T06:40:18.104Z,32.85
2022-12-03T06:42:44.918Z,34.58
2022-12-03T06:45:11.951Z,33.83
2022-12-03T06:47:38.870Z,32.72
2022-12-03T06:50:08.991Z,33.53
2022-12-03T06:52:36.265Z,35.58
2022-12-03T06:55:03.713Z,33.47
2022-12-03T06:57:30.596Z,35.20
2022-12-03T06:59:57.418Z,35.58
2022-12-03T07:02:24.556Z,36.30
2022-12-03T07:04:51.491Z,34.70
2022-12-03T07:07:18.305Z,33.28
2022-12-03T07:09:45.104Z,32.97
2022-12-03T07:12:11.890Z,34.03
2022-12-03T07:14:38.830Z,34.35
2022-12-03T07:17:05.650Z,35.00
2022-12-03T07:19:33.177Z,35.88
2022-12-03T07:22:00.357Z,35.05
2022-12-03T07:24:27.555Z,36.55
2022-12-03T07:26:54.468Z,34.40
2022-12-03T07:29:21.270Z,38.58
2022-12-03T07:31:48.194Z,37.72
2022-12-03T07:34:15.066Z,36.85
2022-12-03T07:36:41.903Z,36.47
2022-12-03T07:39:08.733Z,34.85
2022-12-03T07:41:35.564Z,37.35
2022-12-03T07:44:02.378Z,38.85
2022-12-03T07:46:29.204Z,37.67
2022-12-03T07:48:56.015Z,36.38
2022-12-03T07:51:26.198Z,37.67
2022-12-03T07:53:57.373Z,35.08
2022-12-03T07:56:24.151Z,34.97
2022-12-03T07:58:50.962Z,36.03
2022-12-03T08:01:17.889Z,38.40
2022-12-03T08:03:45.155Z,36.25
2022-12-03T08:06:11.973Z,36.33
2022-12-03T08:08:41.505Z,33.67
2022-12-03T08:11:14.761Z,34.67
2022-12-03T08:13:41.561Z,28.90
2022-12-03T08:16:18.044Z,34.47
2022-12-03T08:18:46.493Z,35.00
2022-12-03T08:21:16.387Z,35.20
2022-12-03T08:23:43.634Z,36.42
2022-12-03T08:26:25.055Z,35.30
2022-12-03T08:28:55.143Z,35.38
2022-12-03T08:31:32.465Z,35.55
2022-12-03T08:34:22.403Z,36.28
2022-12-03T08:36:56.242Z,33.03
2022-12-03T08:39:31.500Z,35.17
2022-12-03T08:42:41.704Z,32.40
2022-12-03T08:45:32.165Z,37.03
2022-12-03T08:48:07.830Z,36.55
2022-12-03T08:50:42.938Z,35.40
2022-12-03T08:53:46.600Z,35.47
2022-12-03T08:56:26.043Z,34.13
2022-12-03T08:59:08.059Z,35.08
2022-12-03T09:01:42.426Z,34.13
2022-12-03T09:04:34.763Z,35.05
2022-12-03T09:07:01.737Z,35.97
2022-12-03T09:09:28.943Z,37.40
2022-12-03T09:11:56.388Z,36.20
2022-12-03T09:14:23.591Z,37.70
2022-12-03T09:16:55.390Z,38.22
2022-12-03T09:19:24.458Z,38.10
2022-12-03T09:21:51.965Z,37.45
2022-12-03T09:24:18.818Z,38.38
2022-12-03T09:26:45.713Z,38.10
2022-12-03T09:29:13.119Z,40.55
2022-12-03T09:31:40.700Z,41.05
2022-12-03T09:34:07.903Z,43.13
2022-12-03T09:36:35.063Z,42.22
2022-12-03T09:39:02.143Z,41.88
2022-12-03T09:41:29.144Z,39.67
2022-12-03T09:44:05.512Z,41.38
2022-12-03T09:46:35.172Z,41.30
2022-12-03T09:49:03.488Z,42.78
2022-12-03T09:51:39.613Z,42.20
2022-12-03T09:54:07.620Z,44.40
2022-12-03T09:56:37.773Z,43.33
2022-12-03T09:59:14.505Z,42.00
2022-12-03T10:01:41.752Z,42.75
2022-12-03T10:04:09.227Z,44.67
2022-12-03T10:06:38.834Z,45.00
2022-12-03T10:09:11.795Z,42.60
2022-12-03T10:11:39.062Z,43.65
2022-12-03T10:14:06.447Z,42.35
2022-12-03T10:16:34.184Z,39.72
2022-12-03T10:19:01.586Z,43.25
2022-12-03T10:21:39.230Z,42.47
2022-12-03T10:24:23.441Z,41.13
2022-12-03T10:26:53.589Z,41.53
2022-12-03T10:29:33.974Z,42.88
2022-12-03T10:32:07.099Z,43.25
2022-12-03T10:34:40.183Z,44.13
2022-12-03T10:37:19.796Z,42.78
2022-12-03T10:40:20.671Z,42.00
2022-12-03T10:43:13.092Z,37.97
2022-12-03T10:46:04.846Z,43.40
2022-12-03T10:49:11.174Z,42.28
2022-12-03T10:51:50.993Z,40.75
2022-12-03T10:58:41.302Z,40.35
2022-12-03T11:01:51.008Z,40.22
2022-12-03T11:04:32.099Z,40.88
2022-12-03T11:07:25.117Z,41.47
2022-12-03T11:09:56.046Z,42.85
2022-12-03T11:15:44.283Z,43.10
2022-12-03T11:18:13.322Z,42.92
2022-12-03T11:21:14.281Z,40.88
2022-12-03T11:23:47.263Z,42.63
2022-12-03T11:26:43.289Z,42.93
2022-12-03T11:29:14.635Z,40.15
2022-12-03T11:31:42.529Z,41.95
2022-12-03T11:34:18.175Z,39.33
2022-12-03T11:37:10.056Z,41.80
2022-12-03T11:39:52.670Z,39.60
2022-12-03T11:42:25.235Z,40.35
2022-12-03T11:45:08.360Z,41.88
2022-12-03T11:47:39.965Z,37.60
2022-12-03T11:50:39.692Z,39.40
2022-12-03T11:53:23.062Z,39.70
2022-12-03T11:56:11.070Z,40.78
2022-12-03T11:58:45.214Z,39.95
2022-12-03T12:01:14.212Z,40.05
2022-12-03T12:03:50.349Z,39.28
2022-12-03T12:06:20.551Z,41.45
2022-12-03T12:08:58.482Z,40.75
2022-12-03T12:11:36.443Z,40.08
2022-12-03T12:14:13.346Z,40.45
2022-12-03T12:16:50.764Z,41.50
2022-12-03T12:19:42.883Z,41.25
2022-12-03T12:22:19.244Z,39.95
2022-12-03T12:24:50.712Z,41.47
2022-12-03T12:27:45.010Z,40.67
2022-12-03T12:30:20.467Z,40.08
2022-12-03T12:33:01.798Z,39.55
2022-12-03T12:35:32.444Z,40.28
2022-12-03T12:38:10.680Z,40.72
2022-12-03T12:40:44.552Z,39.70
2022-12-03T12:43:24.005Z,40.80
2022-12-03T12:45:58.380Z,41.05
2022-12-03T12:48:28.613Z,39.65
2022-12-03T12:51:12.893Z,41.83
2022-12-03T12:53:42.803Z,41.60
2022-12-03T12:56:32.576Z,41.50
2022-12-03T12:59:20.676Z,39.30
2022-12-03T13:01:49.366Z,43.05
2022-12-03T13:04:20.497Z,41.28
2022-12-03T13:06:49.607Z,39.60
2022-12-03T13:09:18.972Z,39.25
2022-12-03T13:11:52.729Z,42.10
2022-12-03T13:14:31.320Z,41.97
2022-12-03T13:17:01.597Z,42.00
2022-12-03T13:19:43.515Z,42.28
2022-12-03T13:22:25.413Z,42.03
2022-12-03T13:24:55.980Z,40.95
2022-12-03T13:27:30.311Z,42.17
2022-12-03T13:30:03.647Z,42.10
2022-12-03T13:32:37.765Z,41.08
2022-12-03T13:37:34.732Z,39.45
2022-12-03T13:40:31.735Z,39.97
2022-12-03T13:42:59.391Z,41.35
2022-12-03T13:45:36.787Z,43.42
2022-12-03T13:48:23.153Z,42.38
2022-12-03T13:50:51.725Z,41.13
2022-12-03T13:53:31.727Z,41.25
2022-12-03T13:56:27.777Z,39.65
2022-12-03T13:58:56.334Z,40.72
2022-12-03T14:01:23.302Z,42.17
2022-12-03T14:03:50.483Z,42.67
2022-12-03T14:06:17.417Z,43.47
2022-12-03T14:08:44.469Z,41.47
2022-12-03T14:11:31.344Z,43.25
2022-12-03T14:13:58.112Z,43.00
2022-12-03T14:16:24.940Z,41.97
2022-12-03T14:18:51.741Z,43.13
2022-12-03T14:21:18.563Z,42.90
2022-12-03T14:23:45.401Z,44.28
2022-12-03T14:26:12.180Z,42.33
2022-12-03T14:28:38.940Z,41.45
2022-12-03T14:31:05.824Z,42.35
2022-12-03T14:33:32.643Z,41.92
2022-12-03T14:35:59.531Z,43.58
2022-12-03T14:38:26.340Z,43.25
2022-12-03T14:40:53.133Z,42.55
2022-12-03T14:43:19.917Z,41.85
2022-12-03T14:45:46.782Z,43.22
2022-12-03T14:48:13.605Z,41.70
2022-12-03T14:50:40.399Z,43.00
2022-12-03T14:53:07.157Z,41.83
2022-12-03T14:55:33.944Z,42.38
2022-12-03T14:58:00.711Z,41.35
2022-12-03T15:00:27.480Z,44.00
2022-12-03T15:02:54.301Z,41.05
2022-12-03T15:05:28.048Z,41.38
2022-12-03T15:07:55.542Z,41.83
2022-12-03T15:10:22.540Z,41.80
2022-12-03T15:12:49.300Z,41.60
2022-12-03T15:15:16.144Z,43.20
2022-12-03T15:17:45.516Z,41.65
2022-12-03T15:20:12.946Z,41.67
2022-12-03T15:22:39.711Z,40.88
2022-12-03T15:25:07.660Z,39.83
2022-12-03T15:27:34.446Z,42.25
2022-12-03T15:30:01.226Z,41.78
2022-12-03T15:32:28.027Z,40.92
2022-12-03T15:34:54.812Z,42.70
2022-12-03T15:37:21.586Z,41.80
2022-12-03T15:39:52.818Z,43.85
2022-12-03T15:42:19.747Z,40.05
2022-12-03T15:44:46.525Z,41.03
2022-12-03T15:47:13.311Z,42.60
2022-12-03T15:49:40.133Z,40.38
2022-12-03T15:52:07.825Z,41.17
2022-12-03T15:54:34.653Z,41.22
2022-12-03T15:57:01.538Z,41.13
2022-12-03T15:59:28.328Z,40.80
2022-12-03T16:01:55.180Z,41.67
2022-12-03T16:04:21.986Z,41.38
2022-12-03T16:06:48.785Z,40.08
2022-12-03T16:09:27.002Z,41.92
2022-12-03T16:11:54.751Z,42.42
2022-12-03T16:14:21.623Z,42.70
2022-12-03T16:16:48.406Z,41.30
2022-12-03T16:19:15.301Z,40.60
2022-12-03T16:21:42.040Z,41.05
2022-12-03T16:24:08.820Z,39.83
2022-12-03T16:26:35.652Z,40.97
2022-12-03T16:29:02.496Z,41.05
2022-12-03T16:31:29.521Z,40.03
2022-12-03T16:33:56.412Z,41.80
2022-12-03T16:36:23.185Z,40.45
2022-12-03T16:38:49.938Z,38.95
2022-12-03T16:41:16.757Z,41.47
2022-12-03T16:43:46.228Z,40.17
2022-12-03T16:46:18.653Z,40.90
2022-12-03T16:48:46.934Z,38.85
2022-12-03T16:51:13.796Z,39.45
2022-12-03T16:53:40.599Z,38.80
2022-12-03T16:56:07.653Z,38.30
2022-12-03T16:58:34.434Z,38.95
2022-12-03T17:01:01.713Z,36.25
2022-12-03T17:03:33.647Z,35.78
2022-12-03T17:06:01.767Z,36.70
2022-12-03T17:08:28.652Z,35.30
2022-12-03T17:10:55.664Z,33.55
2022-12-03T17:13:25.630Z,36.30
2022-12-03T17:15:52.537Z,36.13
2022-12-03T17:18:19.396Z,36.85
2022-12-03T17:20:46.138Z,36.28
2022-12-03T17:23:12.916Z,34.35
2022-12-03T17:25:39.691Z,35.47
2022-12-03T17:28:06.464Z,37.00
2022-12-03T17:30:33.304Z,33.88
2022-12-03T17:33:00.083Z,33.85
2022-12-03T17:35:28.485Z,36.28
2022-12-03T17:37:55.822Z,39.60
2022-12-03T17:40:23.678Z,38.35
2022-12-03T17:42:50.467Z,40.13
2022-12-03T17:45:17.379Z,38.08
2022-12-03T17:47:44.587Z,38.15
2022-12-03T17:50:11.892Z,37.25
2022-12-03T17:52:38.640Z,37.10
2022-12-03T17:55:12.766Z,37.15
2022-12-03T17:57:41.245Z,36.63
2022-12-03T18:00:08.943Z,37.17
2022-12-03T18:02:35.732Z,36.95
2022-12-03T18:05:02.548Z,36.78
2022-12-03T18:07:29.320Z,37.45
2022-12-03T18:09:56.340Z,38.15
2022-12-03T18:12:23.422Z,37.75
2022-12-03T18:14:50.171Z,38.25
2022-12-03T18:17:16.954Z,36.65
2022-12-03T18:19:43.847Z,38.67
2022-12-03T18:22:11.146Z,36.08
2022-12-03T18:24:37.995Z,36.92
2022-12-03T18:27:04.802Z,34.65
2022-12-03T18:29:31.860Z,36.85
2022-12-03T18:31:58.687Z,36.47
2022-12-03T18:34:25.561Z,38.13
2022-12-03T18:36:52.378Z,40.22
2022-12-03T18:39:26.827Z,40.10
2022-12-03T18:41:54.235Z,37.17
2022-12-03T18:44:21.414Z,39.55
2022-12-03T18:46:55.573Z,38.40
2022-12-03T18:49:22.692Z,40.75
2022-12-03T18:51:53.293Z,40.38
2022-12-03T18:54:24.349Z,39.75
2022-12-03T18:56:51.108Z,40.63
2022-12-03T18:59:17.936Z,38.92
2022-12-03T19:01:44.989Z,39.92
2022-12-03T19:04:11.863Z,37.17
2022-12-03T19:06:38.645Z,39.17
2022-12-03T19:09:05.428Z,39.22
2022-12-03T19:11:33.913Z,38.95
2022-12-03T19:14:02.712Z,40.63
2022-12-03T19:16:29.584Z,41.13
2022-12-03T19:18:57.081Z,41.28
2022-12-03T19:21:23.905Z,40.22
2022-12-03T19:24:16.409Z,39.63
2022-12-03T19:26:37.504Z,42.58
2022-12-03T19:29:04.367Z,40.85
2022-12-03T19:31:33.288Z,42.67
2022-12-03T19:34:00.311Z,40.95
2022-12-03T19:36:30.269Z,39.90
2022-12-03T19:38:59.426Z,40.30
2022-12-03T19:41:30.324Z,41.33
2022-12-03T19:43:57.964Z,40.30
2022-12-03T19:46:29.138Z,40.97
2022-12-03T19:48:56.184Z,41.00
2022-12-03T19:51:34.715Z,39.95
2022-12-03T19:54:06.419Z,38.38
2022-12-03T19:56:34.382Z,39.45
2022-12-03T19:59:01.510Z,39.40
2022-12-03T20:01:31.468Z,39.95
2022-12-03T20:04:00.624Z,39.83
2022-12-03T20:06:33.038Z,40.50
2022-12-03T20:09:11.361Z,39.80
2022-12-03T20:11:40.656Z,39.33
2022-12-03T20:14:12.817Z,38.45
2022-12-03T20:16:39.913Z,39.03
2022-12-03T20:19:08.441Z,39.42
2022-12-03T20:21:37.313Z,40.30
2022-12-03T20:24:05.236Z,40.50
2022-12-03T20:26:32.745Z,39.75
2022-12-03T20:28:59.974Z,35.83
2022-12-03T20:31:29.952Z,38.53
2022-12-03T20:34:01.389Z,38.83
2022-12-03T20:36:30.277Z,38.88
2022-12-03T20:39:00.716Z,37.20
2022-12-03T20:41:27.871Z,39.40
2022-12-03T20:43:54.866Z,39.03
2022-12-03T20:46:26.106Z,39.47
2022-12-03T20:48:54.056Z,38.47
2022-12-03T20:51:24.941Z,38.53
2022-12-03T20:53:52.477Z,39.08
2022-12-03T20:56:23.432Z,38.78
2022-12-03T20:58:50.713Z,38.15
2022-12-03T21:01:21.767Z,37.30
2022-12-03T21:03:50.189Z,37.80
2022-12-03T21:06:17.827Z,38.67
2022-12-03T21:08:45.179Z,38.72
2022-12-03T21:11:24.157Z,39.85
2022-12-03T21:13:51.663Z,40.00
2022-12-03T21:16:52.027Z,38.80
2022-12-03T21:19:12.456Z,38.40
2022-12-03T21:21:39.206Z,39.47
2022-12-03T21:24:06.327Z,41.60
2022-12-03T21:26:33.913Z,40.17
2022-12-03T21:29:00.684Z,37.70
2022-12-03T21:31:27.627Z,39.42
2022-12-03T21:33:56.354Z,39.42
2022-12-03T21:36:25.037Z,42.67
2022-12-03T21:38:52.626Z,39.05
2022-12-03T21:41:19.595Z,40.75
2022-12-03T21:43:46.366Z,39.33
2022-12-03T21:47:10.952Z,39.95
2022-12-03T21:49:02.013Z,39.78
2022-12-03T21:51:28.879Z,40.95
2022-12-03T21:53:55.724Z,40.72
2022-12-03T21:56:22.580Z,40.78
2022-12-03T21:58:49.397Z,41.55
2022-12-03T22:01:23.482Z,40.08
2022-12-03T22:03:51.129Z,39.85
2022-12-03T22:06:18.783Z,39.65
2022-12-03T22:08:45.966Z,39.05
2022-12-03T22:11:23.550Z,38.45
2022-12-03T22:13:51.345Z,39.60
2022-12-03T22:16:20.885Z,41.60
2022-12-03T22:18:48.292Z,42.58
2022-12-03T22:21:19.768Z,43.65
2022-12-03T22:23:46.576Z,39.90
2022-12-03T22:26:16.063Z,41.22
2022-12-03T22:28:48.308Z,40.35
2022-12-03T22:31:17.183Z,43.42
2022-12-03T22:33:47.929Z,42.65
2022-12-03T22:36:20.526Z,42.78
2022-12-03T22:38:48.859Z,40.72
2022-12-03T22:41:16.289Z,41.97
2022-12-03T22:43:43.237Z,40.35
2022-12-03T22:46:12.404Z,40.75
2022-12-03T22:48:41.376Z,41.53
2022-12-03T22:51:21.009Z,41.30
2022-12-03T22:53:48.744Z,40.22
2022-12-03T22:56:17.104Z,43.53
2022-12-03T22:58:43.892Z,39.90
2022-12-03T23:01:27.830Z,40.90
2022-12-03T23:03:54.938Z,40.15
2022-12-03T23:06:22.763Z,40.33
2022-12-03T23:08:50.484Z,41.05
2022-12-03T23:11:18.011Z,39.00
2022-12-03T23:13:44.833Z,40.90
2022-12-03T23:16:26.201Z,40.97
2022-12-03T23:18:53.383Z,39.75
2022-12-03T23:21:29.378Z,41.22
2022-12-03T23:23:58.967Z,41.30
2022-12-03T23:26:26.700Z,41.97
